Time;durP1;ratioP1;P1;durP2;ratioP2;P2;SDS_P1;SDS_P2;PMS_P1;PMS_P2;Temp;Humidity;BMP_temperature;BMP_pressure;BME280_temperature;BME280_humidity;BME280_pressure;Samples;Min_cycle;Max_cycle;Signal;HPM_P1;HPM_P2
2021/11/27 00:02:20;;;;;;;3.35;2.70;;;;;;;3.73;86.41;97878.63;4994634;28;20558;-46
2021/11/27 00:04:47;;;;;;;3.85;2.80;;;;;;;3.71;86.73;97878.81;4993493;28;20092;-50
2021/11/27 00:07:13;;;;;;;2.97;2.63;;;;;;;3.81;86.41;97879.31;4993925;28;20161;-48
2021/11/27 00:09:40;;;;;;;4.80;3.03;;;;;;;3.85;85.84;97869.41;4994007;28;20545;-49
2021/11/27 00:12:07;;;;;;;3.38;2.70;;;;;;;3.86;85.89;97877.00;4994134;28;20088;-49
2021/11/27 00:14:36;;;;;;;4.40;3.47;;;;;;;3.79;85.69;97877.91;4993858;28;20093;-48
2021/11/27 00:17:04;;;;;;;2.20;1.80;;;;;;;3.76;85.19;97868.75;4993722;28;20047;-46
2021/11/27 00:19:31;;;;;;;2.53;2.15;;;;;;;3.83;85.64;97873.97;4993435;28;20129;-53
2021/11/27 00:21:58;;;;;;;3.03;2.08;;;;;;;3.76;85.34;97862.75;4993690;28;20497;-52
2021/11/27 00:24:25;;;;;;;3.05;2.60;;;;;;;3.85;85.76;97859.06;4993561;28;20304;-48
2021/11/27 00:26:52;;;;;;;3.10;2.40;;;;;;;3.77;85.69;97860.00;4993577;28;20051;-50
2021/11/27 00:29:20;;;;;;;2.78;2.28;;;;;;;3.82;85.28;97859.44;4993373;28;20047;-48
2021/11/27 00:31:48;;;;;;;3.78;2.92;;;;;;;3.82;85.00;97865.41;4993525;28;20436;-48
2021/11/27 00:34:15;;;;;;;2.88;2.38;;;;;;;3.87;84.48;97857.09;4993705;28;20054;-48
2021/11/27 00:36:42;;;;;;;3.30;2.30;;;;;;;3.85;85.58;97849.53;4993690;28;20054;-50
2021/11/27 00:39:09;;;;;;;3.45;2.10;;;;;;;3.85;84.84;97859.06;4993525;28;20089;-47
2021/11/27 00:41:37;;;;;;;3.15;2.40;;;;;;;3.89;84.62;97855.16;4993352;28;20062;-48
2021/11/27 00:44:05;;;;;;;3.08;2.28;;;;;;;3.87;84.67;97847.56;4993317;28;20062;-50
2021/11/27 00:46:32;;;;;;;2.75;2.00;;;;;;;3.98;84.55;97846.28;4992894;28;20093;-44
2021/11/27 00:49:00;;;;;;;3.33;2.40;;;;;;;3.89;84.01;97855.94;4993319;28;20050;-47
2021/11/27 00:51:27;;;;;;;3.53;2.65;;;;;;;3.89;84.77;97847.38;4993423;28;20096;-48
2021/11/27 00:53:55;;;;;;;2.10;1.90;;;;;;;3.94;84.03;97853.63;4993151;28;20054;-49
2021/11/27 00:56:22;;;;;;;3.92;2.72;;;;;;;3.88;84.51;97862.09;5023329;23;20038;-79
2021/11/27 00:58:49;;;;;;;3.53;2.70;;;;;;;3.97;84.33;97857.63;4995249;28;20137;-77
2021/11/27 01:01:18;;;;;;;3.13;2.42;;;;;;;3.98;84.61;97856.66;4996512;28;20046;-77
2021/11/27 01:03:46;;;;;;;3.33;2.55;;;;;;;3.94;84.17;97860.56;4996354;28;20054;-77
2021/11/27 01:06:16;;;;;;;2.70;2.28;;;;;;;3.99;84.04;97861.63;4996170;28;20145;-78
2021/11/27 01:08:44;;;;;;;2.20;2.00;;;;;;;3.91;84.28;97853.97;4996257;28;20066;-78
2021/11/27 01:11:17;;;;;;;3.78;2.63;;;;;;;3.93;83.88;97851.22;4996828;28;20078;-78
2021/11/27 01:13:47;;;;;;;2.83;2.28;;;;;;;3.88;84.34;97856.94;5000527;28;20423;-78
2021/11/27 01:16:14;;;;;;;2.47;1.88;;;;;;;3.85;85.13;97848.72;4995594;28;20209;-78
2021/11/27 01:18:41;;;;;;;3.03;2.30;;;;;;;3.88;84.51;97850.94;4995786;28;20054;-77
2021/11/27 01:21:11;;;;;;;2.05;1.70;;;;;;;3.94;84.23;97856.22;4996155;28;20405;-78
2021/11/27 01:23:39;;;;;;;1.95;1.75;;;;;;;3.87;84.34;97851.94;4995570;28;20506;-78
2021/11/27 01:26:06;;;;;;;3.05;2.00;;;;;;;3.93;85.03;97853.81;4995908;28;20081;-78
2021/11/27 01:28:33;;;;;;;1.80;1.70;;;;;;;3.83;84.78;97863.63;4995295;28;20084;-77
2021/11/27 01:31:01;;;;;;;3.22;2.08;;;;;;;3.80;84.89;97864.78;4995907;28;20116;-78
2021/11/27 01:33:30;;;;;;;1.38;1.27;;;;;;;3.83;84.39;97868.78;4995577;28;20085;-77
2021/11/27 01:35:57;;;;;;;2.47;2.00;;;;;;;3.82;84.73;97860.22;4995414;28;20086;-78
2021/11/27 01:38:24;;;;;;;1.95;1.83;;;;;;;3.84;84.56;97860.84;4995336;28;20090;-78
2021/11/27 01:40:52;;;;;;;2.58;1.70;;;;;;;3.81;84.83;97865.59;4995947;28;20133;-78
2021/11/27 01:43:20;;;;;;;2.35;1.90;;;;;;;3.81;85.19;97858.63;4995664;28;20050;-78
2021/11/27 01:45:47;;;;;;;2.40;1.70;;;;;;;3.79;84.73;97858.00;4995321;28;20074;-78
2021/11/27 01:48:16;;;;;;;2.45;2.13;;;;;;;3.81;85.27;97855.25;4995394;28;20086;-77
2021/11/27 01:50:47;;;;;;;2.47;1.95;;;;;;;3.74;85.37;97860.34;4995300;28;20117;-77
2021/11/27 01:53:15;;;;;;;1.83;1.65;;;;;;;3.72;85.37;97859.72;4995531;28;20073;-78
2021/11/27 01:55:41;;;;;;;2.83;1.95;;;;;;;3.78;85.68;97858.22;4995276;28;20089;-79
2021/11/27 01:58:10;;;;;;;2.55;1.90;;;;;;;3.80;85.63;97856.22;4995102;28;20134;-79
2021/11/27 02:00:42;;;;;;;3.00;1.92;;;;;;;3.79;86.00;97850.25;4995502;28;20129;-79
2021/11/27 02:03:09;;;;;;;3.88;1.90;;;;;;;3.77;85.48;97856.59;4995236;28;20081;-79
2021/11/27 02:05:36;;;;;;;3.35;1.70;;;;;;;3.75;85.71;97854.19;4994998;28;20137;-79
2021/11/27 02:08:04;;;;;;;2.40;1.73;;;;;;;3.78;85.68;97855.63;4994845;28;20046;-79
2021/11/27 02:10:34;;;;;;;2.13;1.85;;;;;;;3.85;85.44;97865.03;4995206;28;20256;-79
2021/11/27 02:13:03;;;;;;;3.13;1.95;;;;;;;3.81;85.68;97865.59;4995217;28;20137;-79
2021/11/27 02:15:31;;;;;;;2.33;1.67;;;;;;;3.78;86.34;97858.22;4994943;28;20129;-79
2021/11/27 02:17:58;;;;;;;3.95;2.95;;;;;;;3.80;86.22;97864.78;4994753;28;20452;-79
2021/11/27 02:20:25;;;;;;;2.92;2.20;;;;;;;3.76;85.81;97871.31;4995378;28;20092;-79
2021/11/27 02:22:54;;;;;;;2.90;2.05;;;;;;;3.80;86.07;97869.16;4995132;28;20506;-78
2021/11/27 02:25:23;;;;;;;1.65;1.55;;;;;;;3.87;86.47;97873.44;4994853;28;21400;-77
2021/11/27 02:27:52;;;;;;;2.08;1.50;;;;;;;3.91;85.88;97869.50;4996715;28;20093;-77
2021/11/27 02:30:22;;;;;;;1.40;1.30;;;;;;;3.93;86.21;97875.28;5002494;28;20086;-78
2021/11/27 02:32:50;;;;;;;1.95;1.67;;;;;;;4.00;85.79;97883.13;5002137;28;20054;-78
2021/11/27 02:35:17;;;;;;;1.30;1.08;;;;;;;3.95;85.80;97867.34;5001417;28;20082;-78
2021/11/27 02:37:45;;;;;;;1.90;1.20;;;;;;;3.98;85.45;97867.78;5001681;28;20076;-78
2021/11/27 02:40:14;;;;;;;2.10;1.90;;;;;;;3.91;86.09;97874.69;5001153;28;20050;-78
2021/11/27 02:42:41;;;;;;;2.55;2.35;;;;;;;3.86;86.51;97871.03;5001496;28;20138;-77
2021/11/27 02:45:09;;;;;;;2.30;2.10;;;;;;;3.92;87.16;97880.66;5001372;28;20165;-78
2021/11/27 02:47:36;;;;;;;4.65;2.58;;;;;;;3.92;87.25;97871.09;5001115;28;20050;-77
2021/11/27 02:50:06;;;;;;;5.57;3.45;;;;;;;4.02;86.93;97883.75;5001425;28;20054;-78
2021/11/27 02:52:34;;;;;;;4.43;3.72;;;;;;;3.93;87.29;97875.28;5001205;28;20054;-80
2021/11/27 02:55:02;;;;;;;4.32;3.60;;;;;;;3.89;88.32;97881.81;5000978;28;20157;-79
2021/11/27 02:57:31;;;;;;;4.90;4.20;;;;;;;3.90;88.97;97877.44;5001062;28;20345;-79
2021/11/27 02:59:59;;;;;;;5.53;4.15;;;;;;;3.77;89.67;97895.41;5001015;28;20088;-79
2021/11/27 03:02:26;;;;;;;4.43;3.92;;;;;;;3.61;87.62;97899.78;5001524;28;20049;-79
2021/11/27 03:04:53;;;;;;;4.55;3.92;;;;;;;3.45;87.15;97905.09;5001301;28;20149;-79
2021/11/27 03:07:20;;;;;;;3.40;3.10;;;;;;;3.34;87.08;97908.13;5000904;28;20129;-79
2021/11/27 03:09:47;;;;;;;4.22;3.58;;;;;;;3.26;87.95;97905.63;5001257;28;20097;-79
2021/11/27 03:12:14;;;;;;;4.28;3.88;;;;;;;3.28;87.45;97904.47;5001302;28;20085;-79
2021/11/27 03:14:42;;;;;;;5.75;4.78;;;;;;;3.19;88.55;97908.09;5001345;28;20051;-79
2021/11/27 03:17:09;;;;;;;6.15;5.38;;;;;;;3.18;88.98;97897.94;5001164;28;20137;-78
2021/11/27 03:19:40;;;;;;;9.10;6.32;;;;;;;3.13;88.66;97901.06;5001233;28;20093;-79
2021/11/27 03:22:07;;;;;;;7.53;6.18;;;;;;;3.11;89.18;97903.00;5001678;28;20372;-78
2021/11/27 03:24:34;;;;;;;7.82;6.55;;;;;;;3.11;89.34;97907.38;5001675;28;20074;-78
2021/11/27 03:27:01;;;;;;;7.97;6.60;;;;;;;3.07;89.74;97906.13;5001801;28;20054;-80
2021/11/27 03:29:28;;;;;;;7.63;6.57;;;;;;;3.07;89.88;97911.28;5001777;28;20133;-80
2021/11/27 03:32:02;;;;;;;8.20;6.78;;;;;;;3.02;90.00;97909.22;5001878;28;20142;-78
2021/11/27 03:34:29;;;;;;;9.40;6.63;;;;;;;3.01;90.52;97910.19;5002370;28;20058;-78
2021/11/27 03:36:56;;;;;;;8.60;7.53;;;;;;;3.05;90.39;97915.81;5002213;28;20082;-79
2021/11/27 03:39:23;;;;;;;9.05;7.40;;;;;;;3.11;90.21;97923.69;4999560;28;20129;-77
2021/11/27 03:41:50;;;;;;;9.63;7.95;;;;;;;3.10;90.78;97926.44;4998120;28;20078;-77
2021/11/27 03:44:17;;;;;;;10.63;8.85;;;;;;;3.10;90.55;97921.28;4998367;28;20138;-78
2021/11/27 03:46:44;;;;;;;10.35;8.38;;;;;;;3.16;90.37;97921.38;4996813;28;20137;-79
2021/11/27 03:49:12;;;;;;;10.98;8.48;;;;;;;3.17;90.63;97927.34;4997484;28;20047;-78
2021/11/27 03:51:39;;;;;;;9.13;7.68;;;;;;;3.16;90.24;97934.31;4997589;28;20105;-77
2021/11/27 03:54:06;;;;;;;9.05;7.47;;;;;;;3.17;90.46;97933.31;4997812;28;20077;-77
2021/11/27 03:56:33;;;;;;;9.55;7.68;;;;;;;3.13;90.44;97933.84;4997456;28;20153;-77
2021/11/27 03:59:02;;;;;;;10.02;7.70;;;;;;;3.20;90.33;97934.75;4997644;28;20104;-76
2021/11/27 04:01:29;;;;;;;8.77;7.22;;;;;;;3.29;90.38;97946.63;4997533;28;20392;-76
2021/11/27 04:03:57;;;;;;;10.20;7.47;;;;;;;3.17;90.07;97945.44;4997595;28;20140;-77
2021/11/27 04:06:25;;;;;;;10.27;7.13;;;;;;;3.13;91.00;97951.94;4997090;28;20466;-77
2021/11/27 04:08:54;;;;;;;9.63;6.95;;;;;;;3.25;90.43;97959.09;4997325;28;20201;-79
2021/11/27 04:11:20;;;;;;;9.23;6.95;;;;;;;3.25;90.76;97953.13;4997598;28;20065;-78
2021/11/27 04:13:47;;;;;;;7.63;6.35;;;;;;;3.26;89.94;97965.06;4997591;28;20138;-78
2021/11/27 04:16:14;;;;;;;7.93;6.68;;;;;;;3.18;89.75;97965.13;4997403;28;20058;-78
2021/11/27 04:18:41;;;;;;;10.80;6.50;;;;;;;3.17;89.69;97968.69;4997253;28;20129;-79
2021/11/27 04:21:07;;;;;;;8.35;6.68;;;;;;;3.16;89.78;97969.66;4997273;28;20145;-78
2021/11/27 04:23:36;;;;;;;9.43;6.50;;;;;;;3.19;89.74;97964.97;4997309;28;20133;-78
2021/11/27 04:26:02;;;;;;;7.88;6.35;;;;;;;3.16;89.97;97967.09;4997102;28;20133;-78
2021/11/27 04:28:29;;;;;;;9.20;6.55;;;;;;;3.24;89.63;97980.75;4996750;28;20140;-79
2021/11/27 04:30:56;;;;;;;8.75;6.25;;;;;;;3.25;89.31;97982.34;4993229;28;20054;-78
2021/11/27 04:33:47;;;;;;;8.70;6.97;;;;;;;3.27;88.62;97985.56;4995731;28;20313;-79
2021/11/27 04:36:22;;;;;;;9.82;6.95;;;;;;;3.08;89.74;97973.13;4995201;28;20066;-79
2021/11/27 04:39:04;;;;;;;9.48;7.43;;;;;;;3.07;89.04;97968.91;4995641;28;20050;-79
2021/11/27 04:41:34;;;;;;;10.15;8.23;;;;;;;3.15;89.35;97999.06;4981875;28;20101;-79
2021/11/27 04:44:01;;;;;;;10.00;8.23;;;;;;;3.16;88.42;98000.69;4976438;28;20093;-78
2021/11/27 04:50:08;;;;;;;10.48;7.22;;;;;;;3.08;88.27;98011.88;4980565;28;20046;-80
2021/11/27 04:52:50;;;;;;;9.95;7.65;;;;;;;3.09;88.05;97997.16;4994824;28;20061;-81
2021/11/27 04:55:22;;;;;;;11.05;7.50;;;;;;;3.18;88.20;98021.97;4996258;28;20046;-80
2021/11/27 04:57:52;;;;;;;12.52;7.90;;;;;;;3.05;88.29;98021.75;4996474;28;20046;-78
2021/11/27 05:00:29;;;;;;;10.85;7.65;;;;;;;3.11;88.39;98026.22;4997802;28;20053;-78
2021/11/27 05:02:57;;;;;;;12.68;9.23;;;;;;;3.10;88.12;98022.84;4995625;28;20050;-78
2021/11/27 05:05:25;;;;;;;10.50;8.20;;;;;;;2.99;87.94;98018.88;4995766;28;20081;-78
2021/11/27 05:07:56;;;;;;;11.93;8.15;;;;;;;3.04;87.97;98020.13;4991116;28;20078;-79
2021/11/27 05:10:24;;;;;;;11.68;8.32;;;;;;;3.02;88.32;98040.97;4996419;28;20054;-79
2021/11/27 05:12:51;;;;;;;10.60;8.05;;;;;;;2.91;88.60;98037.00;4992407;28;20108;-79
2021/11/27 05:15:19;;;;;;;12.77;7.85;;;;;;;3.04;88.70;98043.38;4976628;28;20043;-79
2021/11/27 05:17:45;;;;;;;11.05;7.95;;;;;;;2.91;88.95;98037.00;4976063;28;20059;-79
2021/11/27 05:20:13;;;;;;;13.05;8.50;;;;;;;2.91;88.63;98047.31;4976479;28;20609;-79
2021/11/27 05:22:43;;;;;;;12.70;8.18;;;;;;;2.79;89.21;98048.69;4976339;28;20055;-79
2021/11/27 05:25:12;;;;;;;12.40;8.00;;;;;;;2.73;89.09;98057.13;4976273;28;20134;-79
2021/11/27 05:27:40;;;;;;;10.93;8.05;;;;;;;2.69;89.56;98055.84;4976864;28;20138;-79
2021/11/27 05:30:10;;;;;;;10.95;8.20;;;;;;;2.63;89.71;98053.94;4976899;28;20106;-79
2021/11/27 05:32:50;;;;;;;11.35;7.75;;;;;;;2.57;89.79;98057.19;4976947;28;20055;-78
2021/11/27 05:35:19;;;;;;;11.60;7.82;;;;;;;2.54;90.41;98060.91;4977529;28;20130;-77
2021/11/27 05:37:46;;;;;;;13.77;7.95;;;;;;;2.58;90.16;98061.38;4976580;28;20078;-79
2021/11/27 05:40:14;;;;;;;9.35;7.43;;;;;;;2.55;90.31;98069.47;4976331;28;20190;-78
2021/11/27 05:42:48;;;;;;;11.43;7.68;;;;;;;2.63;90.39;98072.81;4978731;28;20054;-77
2021/11/27 05:45:15;;;;;;;10.18;7.93;;;;;;;2.69;89.29;98068.75;4977452;28;20413;-78
2021/11/27 05:47:48;;;;;;;11.82;8.02;;;;;;;2.74;89.81;98070.84;4976074;28;20444;-78
2021/11/27 05:50:14;;;;;;;12.82;8.88;;;;;;;2.64;89.91;98076.19;4976092;28;20447;-79
2021/11/27 05:52:42;;;;;;;12.95;9.20;;;;;;;2.58;90.69;98067.34;4975802;28;20106;-78
2021/11/27 05:55:14;;;;;;;14.23;10.23;;;;;;;2.59;90.96;98081.06;4975918;28;20074;-79
2021/11/27 05:57:41;;;;;;;15.48;11.18;;;;;;;2.58;90.87;98074.28;4975658;28;20432;-79
2021/11/27 06:00:14;;;;;;;15.02;11.63;;;;;;;2.64;90.57;98086.53;4976029;28;20062;-78
2021/11/27 06:02:46;;;;;;;;;;;;;;;2.57;90.95;98088.97;4976111;28;20054;-78
2021/11/27 06:05:13;;;;;;;16.15;11.25;;;;;;;2.55;90.59;98088.34;4975689;28;19993;-78
2021/11/27 06:07:40;;;;;;;17.42;12.52;;;;;;;2.58;91.39;98097.53;4975583;28;20042;-77
2021/11/27 06:10:14;;;;;;;17.38;12.43;;;;;;;2.54;91.51;98086.72;4975773;28;20364;-78
2021/11/27 06:12:44;;;;;;;21.92;12.45;;;;;;;2.60;91.15;98096.38;4976211;28;20145;-78
2021/11/27 06:15:16;;;;;;;14.85;11.82;;;;;;;2.59;91.66;98096.56;4975916;28;20054;-78
2021/11/27 06:17:48;;;;;;;19.48;12.85;;;;;;;2.54;91.47;98097.03;4975723;28;20051;-80
2021/11/27 06:20:15;;;;;;;16.58;11.77;;;;;;;2.63;90.82;98097.81;4976099;28;20062;-78
2021/11/27 06:22:45;;;;;;;17.50;12.73;;;;;;;2.58;91.47;98108.66;4975768;28;20051;-79
2021/11/27 06:25:15;;;;;;;17.80;11.40;;;;;;;2.58;90.71;98100.09;4975592;28;20050;-79
2021/11/27 06:27:42;;;;;;;18.08;12.50;;;;;;;2.61;90.99;98113.47;4975647;28;20055;-79
2021/11/27 06:30:13;;;;;;;18.10;12.48;;;;;;;2.52;91.00;98113.69;4975415;28;20054;-79
2021/11/27 06:32:45;;;;;;;21.27;12.70;;;;;;;2.60;91.12;98116.22;4975716;28;20122;-79
2021/11/27 06:35:12;;;;;;;17.13;12.18;;;;;;;2.55;91.36;98119.31;4975813;28;20321;-79
2021/11/27 06:37:43;;;;;;;16.92;12.05;;;;;;;2.58;91.69;98128.50;4975327;28;20046;-79
2021/11/27 06:40:13;;;;;;;16.52;12.18;;;;;;;2.51;91.36;98123.19;4975721;28;20057;-79
2021/11/27 06:42:45;;;;;;;13.45;10.75;;;;;;;2.44;91.69;98136.91;4975278;28;20051;-79
2021/11/27 06:45:13;;;;;;;16.27;11.33;;;;;;;2.41;91.86;98142.41;4975565;28;20075;-78
2021/11/27 06:47:41;;;;;;;17.23;10.02;;;;;;;2.44;92.48;98139.50;4975150;28;20400;-78
2021/11/27 06:50:11;;;;;;;17.75;11.93;;;;;;;2.36;91.76;98139.53;4975331;28;20051;-78
2021/11/27 06:52:42;;;;;;;19.20;11.68;;;;;;;2.31;91.73;98145.19;4975221;28;20470;-78
2021/11/27 06:55:12;;;;;;;17.10;11.80;;;;;;;2.31;91.76;98152.94;4975963;28;20079;-79
2021/11/27 06:57:39;;;;;;;14.48;11.20;;;;;;;2.39;92.27;98167.56;5053227;23;20053;-47
2021/11/27 07:00:07;;;;;;;16.33;11.13;;;;;;;2.47;92.05;98170.16;5004262;28;20080;-46
2021/11/27 07:02:34;;;;;;;17.83;12.02;;;;;;;2.44;91.61;98176.44;5010702;28;20057;-46
2021/11/27 07:05:02;;;;;;;18.20;11.68;;;;;;;2.21;91.97;98181.50;5010999;28;20171;-46
2021/11/27 07:07:29;;;;;;;19.10;12.18;;;;;;;2.08;92.56;98188.91;5011090;28;20197;-47
2021/11/27 07:09:55;;;;;;;14.82;11.60;;;;;;;2.09;92.23;98193.09;5010250;28;20081;-49
2021/11/27 07:12:22;;;;;;;19.42;12.82;;;;;;;2.05;92.81;98194.38;5010211;28;20478;-50
2021/11/27 07:14:49;;;;;;;18.55;12.35;;;;;;;2.05;93.23;98194.38;5011425;28;20085;-47
2021/11/27 07:17:16;;;;;;;20.17;13.48;;;;;;;2.21;93.38;98202.13;5013994;28;20425;-51
2021/11/27 07:19:43;;;;;;;19.50;12.35;;;;;;;2.06;93.41;98205.50;5013865;28;20060;-51
2021/11/27 07:22:11;;;;;;;18.15;12.80;;;;;;;2.09;93.26;98205.19;5013738;28;20054;-53
2021/11/27 07:24:38;;;;;;;20.77;13.13;;;;;;;2.02;92.60;98211.94;5013626;28;20085;-50
2021/11/27 07:27:06;;;;;;;19.02;12.32;;;;;;;1.88;92.65;98210.84;5013750;28;20042;-47
2021/11/27 07:29:34;;;;;;;20.15;12.48;;;;;;;1.82;93.15;98219.22;5013559;28;20068;-45
2021/11/27 07:32:01;;;;;;;18.60;12.77;;;;;;;1.85;93.20;98229.22;5013651;28;20496;-45
2021/11/27 07:34:28;;;;;;;23.00;13.32;;;;;;;1.78;93.51;98230.81;5013929;28;20182;-47
2021/11/27 07:36:54;;;;;;;22.13;14.18;;;;;;;1.67;93.85;98235.28;5013630;28;20132;-49
2021/11/27 07:39:22;;;;;;;19.92;14.00;;;;;;;1.74;93.99;98239.81;5013862;28;20111;-49
2021/11/27 07:41:49;;;;;;;22.17;14.48;;;;;;;1.80;93.91;98240.00;5013900;28;20058;-47
2021/11/27 07:44:16;;;;;;;21.85;15.60;;;;;;;1.77;93.90;98247.25;5013700;28;20089;-48
2021/11/27 07:46:47;;;;;;;25.50;17.77;;;;;;;1.75;93.81;98244.81;5015025;28;20135;-50
2021/11/27 07:49:14;;;;;;;23.42;18.45;;;;;;;1.66;93.98;98250.91;4983732;28;20054;-53
2021/11/27 07:51:41;;;;;;;22.15;15.88;;;;;;;1.66;94.14;98259.44;4980920;28;20133;-50
2021/11/27 07:54:07;;;;;;;23.50;16.23;;;;;;;1.63;94.17;98262.34;4984680;28;20042;-47
2021/11/27 07:56:35;;;;;;;21.35;14.07;;;;;;;1.67;94.12;98270.56;4993584;28;20105;-52
2021/11/27 07:59:02;;;;;;;20.55;13.30;;;;;;;1.74;94.15;98268.19;4993693;28;20058;-51
2021/11/27 08:01:30;;;;;;;20.02;12.27;;;;;;;1.92;94.08;98274.00;4978553;28;20054;-49
2021/11/27 08:03:58;;;;;;;19.95;12.93;;;;;;;2.14;93.77;98270.81;4974085;28;20105;-50
2021/11/27 08:06:25;;;;;;;19.40;12.45;;;;;;;2.39;93.23;98275.97;4973835;28;20058;-49
2021/11/27 08:08:51;;;;;;;19.50;13.32;;;;;;;2.49;92.60;98285.19;4973942;28;20047;-47
2021/11/27 08:11:18;;;;;;;16.90;11.52;;;;;;;2.46;90.97;98276.94;4974068;28;20082;-51
2021/11/27 08:13:48;;;;;;;16.55;12.05;;;;;;;2.44;91.12;98281.47;4973379;28;20054;-49
2021/11/27 08:16:14;;;;;;;15.63;11.57;;;;;;;2.40;90.98;98285.34;4973730;28;20068;-52
2021/11/27 08:18:42;;;;;;;19.23;12.60;;;;;;;2.35;90.63;98292.78;4973577;28;20505;-47
2021/11/27 08:21:08;;;;;;;16.38;12.10;;;;;;;2.37;91.17;98283.06;4973298;28;20462;-49
2021/11/27 08:23:35;;;;;;;17.13;12.85;;;;;;;2.37;91.18;98290.81;4973224;28;20395;-48
2021/11/27 08:26:02;;;;;;;16.35;11.90;;;;;;;2.34;91.35;98289.38;4972877;28;20106;-47
2021/11/27 08:28:29;;;;;;;17.27;11.43;;;;;;;2.38;91.28;98302.75;4973579;28;20105;-48
2021/11/27 08:30:57;;;;;;;17.77;12.25;;;;;;;2.42;90.60;98302.28;4973774;28;20051;-47
2021/11/27 08:33:24;;;;;;;20.65;12.68;;;;;;;2.36;90.41;98315.03;4973683;28;20129;-46
2021/11/27 08:35:51;;;;;;;19.60;12.43;;;;;;;2.39;90.52;98310.34;4973740;28;20086;-50
2021/11/27 08:38:17;;;;;;;21.92;12.85;;;;;;;2.50;90.86;98311.78;4973560;28;20130;-47
2021/11/27 08:40:44;;;;;;;18.27;12.48;;;;;;;2.72;89.74;98311.16;4973865;28;20081;-49
2021/11/27 08:43:11;;;;;;;19.58;12.20;;;;;;;2.68;89.68;98320.19;4973654;28;20154;-49
2021/11/27 08:45:40;;;;;;;17.50;12.43;;;;;;;2.66;90.11;98327.28;4973314;28;20051;-47
2021/11/27 08:48:09;;;;;;;21.10;12.15;;;;;;;2.74;89.94;98332.47;4973158;28;20125;-51
2021/11/27 08:50:36;;;;;;;17.75;11.52;;;;;;;2.86;89.12;98336.31;4973654;28;20489;-50
2021/11/27 08:53:03;;;;;;;18.15;11.20;;;;;;;3.04;89.16;98335.31;4973333;28;20121;-48
2021/11/27 08:55:30;;;;;;;15.70;11.43;;;;;;;3.25;88.94;98344.19;4972850;28;20063;-50
2021/11/27 08:57:57;;;;;;;17.73;11.48;;;;;;;3.30;87.54;98346.28;4972944;28;20421;-52
2021/11/27 09:00:24;;;;;;;19.42;10.40;;;;;;;3.41;86.86;98338.13;4973024;28;20347;-46
2021/11/27 09:02:55;;;;;;;16.58;11.95;;;;;;;3.33;86.92;98351.06;4973090;28;20480;-51
2021/11/27 09:05:23;;;;;;;23.02;11.82;;;;;;;3.14;87.24;98357.44;4972585;28;20051;-46
2021/11/27 09:07:50;;;;;;;15.35;10.32;;;;;;;3.03;87.88;98354.38;4973166;28;20469;-51
2021/11/27 09:10:18;;;;;;;17.13;12.02;;;;;;;3.02;87.29;98363.91;4973402;28;20146;-46
2021/11/27 09:12:45;;;;;;;16.13;11.45;;;;;;;2.90;87.77;98366.00;4973473;28;20050;-48
2021/11/27 09:15:12;;;;;;;17.15;10.95;;;;;;;2.98;87.88;98367.78;4973287;28;20105;-50
2021/11/27 09:17:39;;;;;;;18.05;11.68;;;;;;;3.04;87.82;98368.91;4973218;28;20133;-48
2021/11/27 09:20:07;;;;;;;20.98;11.93;;;;;;;3.02;88.00;98363.91;4972521;28;20042;-50
2021/11/27 09:22:35;;;;;;;15.80;11.00;;;;;;;3.06;87.71;98364.38;4972848;28;20051;-51
2021/11/27 09:25:02;;;;;;;17.80;11.05;;;;;;;3.07;87.43;98366.00;4972546;28;20501;-50
2021/11/27 09:27:28;;;;;;;17.35;12.02;;;;;;;3.05;88.14;98383.44;4972493;28;20055;-50
2021/11/27 09:29:55;;;;;;;16.13;10.85;;;;;;;3.06;87.64;98391.03;4972489;28;20078;-49
2021/11/27 09:32:22;;;;;;;17.90;10.98;;;;;;;2.96;87.99;98386.03;4972517;28;20122;-47
2021/11/27 09:34:49;;;;;;;18.42;11.45;;;;;;;3.00;87.93;98389.91;4972137;28;20058;-47
2021/11/27 09:37:16;;;;;;;18.80;11.07;;;;;;;2.99;87.95;98385.69;4971667;28;20097;-47
2021/11/27 09:39:46;;;;;;;16.58;10.77;;;;;;;3.04;87.57;98387.00;4972584;28;20086;-48
2021/11/27 09:42:17;;;;;;;13.55;9.80;;;;;;;3.13;86.68;98394.59;4972868;28;20058;-54
2021/11/27 09:44:53;;;;;;;15.27;11.23;;;;;;;3.15;86.77;98395.22;4972263;28;20098;-49
2021/11/27 09:47:20;;;;;;;13.95;9.25;;;;;;;3.29;85.75;98391.19;4971984;28;20134;-49
2021/11/27 09:49:49;;;;;;;14.82;9.48;;;;;;;3.20;86.41;98402.50;4972420;28;20085;-48
2021/11/27 09:52:16;;;;;;;14.30;9.98;;;;;;;3.21;85.73;98396.34;4972252;28;20053;-50
2021/11/27 09:54:44;;;;;;;13.07;9.25;;;;;;;3.36;85.73;98405.03;4971980;28;20070;-49
2021/11/27 09:57:13;;;;;;;14.40;8.98;;;;;;;3.50;84.02;98401.78;4972227;28;20599;-50
2021/11/27 09:59:41;;;;;;;14.40;8.98;;;;;;;3.54;83.50;98403.06;4972120;28;20413;-48
2021/11/27 10:02:13;;;;;;;19.13;9.00;;;;;;;3.58;82.98;98404.34;4972287;28;20073;-50
2021/11/27 10:04:44;;;;;;;21.63;8.93;;;;;;;3.71;82.27;98415.97;4972678;28;20101;-52
2021/11/27 10:07:12;;;;;;;15.05;7.05;;;;;;;3.76;80.45;98419.66;4972388;28;20093;-47
2021/11/27 10:09:40;;;;;;;11.77;7.32;;;;;;;3.70;80.71;98409.97;4971830;28;20101;-48
2021/11/27 10:12:10;;;;;;;12.35;7.32;;;;;;;3.72;80.54;98412.41;4971844;28;20070;-47
2021/11/27 10:14:39;;;;;;;12.57;6.65;;;;;;;3.72;80.93;98413.22;4972246;28;20470;-48
2021/11/27 10:17:13;;;;;;;12.02;7.10;;;;;;;3.70;81.21;98422.91;4971897;28;20054;-51
2021/11/27 10:19:52;;;;;;;14.80;8.23;;;;;;;3.73;80.41;98424.38;4971804;28;20451;-46
2021/11/27 10:22:24;;;;;;;12.73;7.45;;;;;;;3.71;80.56;98428.91;4972267;28;20362;-48
2021/11/27 10:24:52;;;;;;;16.65;7.32;;;;;;;3.73;81.00;98421.78;4972236;28;20157;-50
2021/11/27 10:27:23;;;;;;;14.15;7.75;;;;;;;3.67;81.31;98418.06;4972625;28;20486;-50
2021/11/27 10:29:58;;;;;;;14.38;7.43;;;;;;;3.67;80.28;98426.63;4972338;28;20089;-51
2021/11/27 10:32:31;;;;;;;14.30;7.32;;;;;;;3.77;79.55;98430.81;4972172;28;20105;-45
2021/11/27 10:34:57;;;;;;;;;;;;;;;3.85;80.25;98423.81;4972533;28;20097;-46
2021/11/27 10:37:28;;;;;;;11.93;7.13;;;;;;;3.90;80.74;98424.13;4972036;28;20052;-47
2021/11/27 10:40:04;;;;;;;11.48;7.32;;;;;;;4.02;79.58;98429.75;4972427;28;20142;-49
2021/11/27 10:42:35;;;;;;;11.00;6.70;;;;;;;4.06;78.98;98431.03;4971994;28;20093;-47
2021/11/27 10:45:14;;;;;;;11.27;6.95;;;;;;;4.27;78.25;98440.78;4971871;28;20054;-53
2021/11/27 10:47:42;;;;;;;20.33;7.40;;;;;;;4.38;77.47;98443.00;4970595;28;20101;-51
2021/11/27 10:50:10;;;;;;;14.80;6.93;;;;;;;4.37;78.10;98449.16;4974143;28;20063;-50
2021/11/27 10:52:38;;;;;;;12.20;6.68;;;;;;;4.61;77.11;98445.66;4975640;28;20051;-49
2021/11/27 10:55:21;;;;;;;11.73;5.95;;;;;;;4.79;75.73;98438.38;4975200;28;20054;-51
2021/11/27 10:57:52;;;;;;;11.57;5.72;;;;;;;6.77;78.53;98446.34;4973600;28;20105;-54
2021/11/27 11:00:33;;;;;;;11.63;5.45;;;;;;;6.46;73.14;98443.22;4975500;28;20385;-55
2021/11/27 11:03:01;;;;;;;21.10;6.72;;;;;;;5.96;72.03;98447.41;4975215;28;20051;-50
2021/11/27 11:05:34;;;;;;;8.57;5.35;;;;;;;5.44;72.88;98447.44;4975669;28;20120;-51
2021/11/27 11:08:01;;;;;;;10.38;6.60;;;;;;;5.17;73.67;98447.03;4975999;28;20051;-52
2021/11/27 11:10:32;;;;;;;12.98;6.47;;;;;;;4.97;74.59;98446.69;4976225;28;20054;-51
2021/11/27 11:13:02;;;;;;;13.95;7.65;;;;;;;4.85;75.09;98455.03;4975589;28;20061;-47
2021/11/27 11:15:32;;;;;;;12.63;6.55;;;;;;;4.98;74.90;98453.47;4975839;28;20051;-48
2021/11/27 11:18:14;;;;;;;13.63;6.10;;;;;;;4.97;73.91;98457.06;4975687;28;20054;-46
2021/11/27 11:20:45;;;;;;;15.40;5.72;;;;;;;4.98;74.90;98465.63;4975537;28;20428;-47
2021/11/27 11:23:15;;;;;;;15.43;5.97;;;;;;;5.01;72.75;98467.88;4975155;28;20047;-48
2021/11/27 11:26:10;;;;;;;11.07;5.20;;;;;;;5.10;72.89;98466.03;4975481;28;20580;-49
2021/11/27 11:28:40;;;;;;;10.48;4.80;;;;;;;5.15;72.05;98466.34;4974912;28;20134;-50
2021/11/27 11:31:09;;;;;;;14.43;5.25;;;;;;;5.14;71.05;98462.13;4975128;28;20050;-47
2021/11/27 11:33:39;;;;;;;10.25;4.80;;;;;;;5.16;69.59;98460.16;4974348;28;20134;-47
2021/11/27 11:36:08;;;;;;;12.07;4.72;;;;;;;5.15;71.12;98463.75;4974827;28;20046;-47
2021/11/27 11:38:36;;;;;;;11.45;4.88;;;;;;;5.09;71.95;98459.25;4974518;28;20086;-47
2021/11/27 11:41:02;;;;;;;10.77;4.28;;;;;;;5.13;70.01;98461.31;4974893;28;20158;-47
2021/11/27 11:43:29;;;;;;;16.38;4.85;;;;;;;5.09;70.26;98464.44;4975509;28;20093;-46
2021/11/27 11:45:57;;;;;;;18.70;6.18;;;;;;;4.91;71.75;98462.94;4975439;28;20050;-45